Time;durP1;ratioP1;P1;durP2;ratioP2;P2;SDS_P1;SDS_P2;PMS_P1;PMS_P2;Temp;Humidity;BMP_temperature;BMP_pressure;BME280_temperature;BME280_humidity;BME280_pressure;Samples;Min_cycle;Max_cycle;Signal;HPM_P1;HPM_P2
2022/01/15 00:01:48;;;;;;;7.90;2.70;;;;;;;3.94;59.77;94134.50;5026033;28;20052;-78
2022/01/15 00:04:13;;;;;;;4.10;2.08;;;;;;;3.92;60.30;94162.22;5026247;28;20216;-80
2022/01/15 00:06:39;;;;;;;7.60;3.17;;;;;;;3.89;60.75;94165.38;5026309;28;20021;-78
2022/01/15 00:09:05;;;;;;;8.75;2.45;;;;;;;3.85;61.04;94151.13;5026133;28;20213;-78
2022/01/15 00:11:31;;;;;;;5.60;2.25;;;;;;;3.83;60.84;94159.31;5026276;28;20066;-79
2022/01/15 00:14:12;;;;;;;4.07;1.70;;;;;;;3.77;61.30;94134.78;5041115;28;20052;-79
2022/01/15 00:16:57;;;;;;;5.38;2.67;;;;;;;3.79;61.29;94142.44;5025902;28;20017;-79
2022/01/15 00:19:35;;;;;;;5.75;2.92;;;;;;;3.73;61.48;94149.53;5025944;28;20025;-79
2022/01/15 00:22:04;;;;;;;4.40;2.00;;;;;;;3.73;61.69;94139.00;5025792;28;20018;-78
2022/01/15 00:24:29;;;;;;;5.30;2.55;;;;;;;3.77;61.58;94145.34;5025799;28;20065;-78
2022/01/15 00:26:56;;;;;;;4.72;2.03;;;;;;;3.77;61.45;94141.91;5025814;28;20045;-78
2022/01/15 00:29:21;;;;;;;7.07;2.47;;;;;;;3.77;61.64;94163.00;5025532;28;20146;-79
2022/01/15 00:31:47;;;;;;;5.75;2.85;;;;;;;3.78;61.55;94175.91;5025828;28;20017;-79
2022/01/15 00:34:12;;;;;;;4.35;2.08;;;;;;;3.77;61.61;94184.88;5025755;28;20014;-79
2022/01/15 00:36:38;;;;;;;4.97;2.40;;;;;;;3.79;61.85;94156.41;5025736;28;20021;-79
2022/01/15 00:39:03;;;;;;;6.55;2.53;;;;;;;3.73;61.77;94175.91;5025834;28;20018;-79
2022/01/15 00:41:28;;;;;;;4.43;2.50;;;;;;;3.71;61.50;94177.25;5040841;28;20108;-80
2022/01/15 00:43:54;;;;;;;5.80;2.22;;;;;;;3.79;61.57;94180.13;5024178;28;20021;-80
2022/01/15 00:46:19;;;;;;;4.53;2.50;;;;;;;3.77;61.62;94140.06;5025559;28;20326;-79
2022/01/15 00:48:45;;;;;;;6.05;2.65;;;;;;;3.83;61.71;94190.97;5025550;28;20018;-81
2022/01/15 00:51:10;;;;;;;9.02;2.90;;;;;;;3.81;61.60;94187.78;5025475;28;20013;-80
2022/01/15 00:53:36;;;;;;;7.40;2.50;;;;;;;3.85;61.74;94151.13;5025072;28;20037;-80
2022/01/15 00:56:01;;;;;;;5.45;2.75;;;;;;;3.89;61.48;94152.19;5024667;28;20247;-81
2022/01/15 00:58:27;;;;;;;6.15;2.40;;;;;;;3.88;61.75;94172.50;5025279;28;20021;-81
2022/01/15 01:00:52;;;;;;;5.15;2.40;;;;;;;3.82;61.65;94160.34;5025541;28;20104;-81
2022/01/15 01:03:23;;;;;;;5.82;2.22;;;;;;;3.85;61.60;94151.94;5025323;28;20021;-80
2022/01/15 01:05:49;;;;;;;6.25;2.33;;;;;;;3.90;61.42;94137.94;5040515;28;20258;-80
2022/01/15 01:08:14;;;;;;;5.43;2.92;;;;;;;3.90;61.65;94137.94;5025156;28;20030;-80
2022/01/15 01:10:59;;;;;;;5.47;3.20;;;;;;;3.90;61.62;94143.22;5024935;28;20021;-79
2022/01/15 01:13:41;;;;;;;8.00;3.00;;;;;;;3.96;61.49;94126.34;5024734;28;20076;-80
2022/01/15 01:24:20;;;;;;;5.80;2.72;;;;;;;3.94;61.26;94186.47;5024797;28;20130;-79
2022/01/15 01:27:14;;;;;;;5.60;2.95;;;;;;;3.95;61.08;94157.22;5024467;28;20025;-79
2022/01/15 01:32:30;;;;;;;5.90;2.90;;;;;;;3.94;61.50;94125.81;5024944;28;20027;-79
2022/01/15 01:34:54;;;;;;;4.65;2.70;;;;;;;3.92;61.23;94163.00;5024811;28;20220;-78
2022/01/15 01:37:31;;;;;;;5.13;2.72;;;;;;;3.96;61.21;94132.41;5040102;28;20033;-78
2022/01/15 01:40:14;;;;;;;6.40;2.78;;;;;;;3.89;61.40;94129.25;5039752;28;20224;-78
2022/01/15 01:42:44;;;;;;;4.13;2.35;;;;;;;3.90;61.48;94138.72;5024439;28;20032;-78
2022/01/15 01:45:13;;;;;;;4.15;2.30;;;;;;;3.90;61.29;94146.66;5024364;28;20079;-79
2022/01/15 01:47:41;;;;;;;6.05;2.90;;;;;;;3.93;61.34;94150.59;5023214;28;20390;-79
2022/01/15 01:50:23;;;;;;;5.57;3.15;;;;;;;3.89;61.15;94173.28;5039760;28;20018;-79
2022/01/15 01:52:52;;;;;;;6.18;2.55;;;;;;;3.88;61.07;94140.84;5024342;28;20232;-79
2022/01/15 01:55:19;;;;;;;10.27;3.08;;;;;;;3.90;61.10;94114.22;5039465;28;20317;-78
2022/01/15 01:57:45;;;;;;;8.07;3.42;;;;;;;3.89;60.79;94125.81;5024204;28;20033;-79
2022/01/15 02:00:13;;;;;;;5.35;2.78;;;;;;;3.91;60.52;94136.88;5023999;28;20231;-79
2022/01/15 02:02:39;;;;;;;7.95;3.38;;;;;;;3.95;60.34;94137.97;5024021;28;20037;-79
2022/01/15 02:05:05;;;;;;;5.80;3.10;;;;;;;3.97;60.29;94126.09;5024098;28;20252;-79
2022/01/15 02:07:31;;;;;;;6.35;2.97;;;;;;;4.02;59.69;94136.63;5023728;28;20050;-79
2022/01/15 02:09:57;;;;;;;8.02;3.17;;;;;;;4.05;59.86;94124.78;5024016;28;20041;-79
2022/01/15 02:12:23;;;;;;;5.75;2.72;;;;;;;4.10;59.46;94137.16;5023729;28;20406;-78
2022/01/15 02:14:49;;;;;;;5.43;3.08;;;;;;;4.19;59.45;94141.63;5024020;28;20025;-79
2022/01/15 02:17:21;;;;;;;8.02;3.35;;;;;;;4.14;59.40;94141.63;5023790;28;20026;-80
2022/01/15 02:25:12;;;;;;;7.78;3.30;;;;;;;4.19;59.58;94146.09;5023785;28;20067;-79
2022/01/15 02:27:38;;;;;;;8.48;3.25;;;;;;;4.19;59.74;94157.47;5023944;28;20022;-79
2022/01/15 02:30:04;;;;;;;6.93;2.80;;;;;;;4.21;59.66;94165.09;5023673;28;20039;-79
2022/01/15 02:32:34;;;;;;;5.40;2.63;;;;;;;4.17;59.74;94154.31;5023317;28;20084;-79
2022/01/15 02:35:01;;;;;;;8.20;3.30;;;;;;;4.21;59.75;94162.47;5023520;28;20272;-78
2022/01/15 02:37:30;;;;;;;5.97;3.00;;;;;;;4.21;59.20;94165.91;5038893;28;20118;-77
2022/01/15 02:39:57;;;;;;;5.55;3.40;;;;;;;4.20;58.55;94153.75;5022122;28;20029;-78
2022/01/15 02:42:26;;;;;;;6.13;2.88;;;;;;;4.10;58.79;94180.16;5038667;28;20057;-78
2022/01/15 02:44:59;;;;;;;6.35;3.05;;;;;;;4.06;58.98;94226.56;5023184;28;20029;-78
2022/01/15 02:50:09;;;;;;;8.20;3.63;;;;;;;3.92;59.17;94183.31;5023376;28;20346;-80
2022/01/15 02:52:34;;;;;;;7.65;3.72;;;;;;;3.83;59.51;94177.78;5023162;28;20024;-79
2022/01/15 02:55:00;;;;;;;9.07;3.75;;;;;;;3.82;59.40;94176.19;5023091;28;20021;-78
2022/01/15 02:57:25;;;;;;;8.52;3.55;;;;;;;3.84;59.53;94166.16;5023363;28;20013;-78
2022/01/15 02:59:51;;;;;;;8.73;3.65;;;;;;;3.82;59.40;94178.81;5023052;28;20036;-79
2022/01/15 03:02:16;;;;;;;7.07;3.42;;;;;;;3.78;59.69;94173.25;5022957;28;20133;-78
2022/01/15 03:04:42;;;;;;;5.47;3.15;;;;;;;3.81;59.17;94191.22;5023077;28;20209;-79
2022/01/15 03:07:07;;;;;;;6.47;3.30;;;;;;;3.72;58.86;94202.53;5023180;28;20033;-80
2022/01/15 03:09:33;;;;;;;9.15;3.83;;;;;;;3.68;58.80;94188.28;5022857;28;20041;-77
2022/01/15 03:12:02;;;;;;;7.97;3.80;;;;;;;3.58;58.65;94205.69;5022707;28;20065;-78
2022/01/15 03:14:30;;;;;;;8.50;4.13;;;;;;;3.53;58.41;94207.50;5022801;28;20025;-78
2022/01/15 03:16:56;;;;;;;9.23;4.20;;;;;;;3.45;58.52;94197.47;5022647;28;20041;-78
2022/01/15 03:19:21;;;;;;;5.03;2.70;;;;;;;3.37;58.87;94204.81;5022550;28;20026;-78
2022/01/15 03:21:46;;;;;;;7.82;3.75;;;;;;;3.36;58.57;94192.72;5022883;28;20294;-78
2022/01/15 03:24:12;;;;;;;10.07;4.03;;;;;;;3.36;58.95;94187.44;5022575;28;20029;-78
2022/01/15 03:26:37;;;;;;;5.80;2.92;;;;;;;3.22;58.52;94187.13;5038397;28;20083;-78
2022/01/15 03:29:03;;;;;;;11.68;4.57;;;;;;;3.24;58.56;94180.78;5037852;28;20100;-78
2022/01/15 03:31:28;;;;;;;9.32;3.80;;;;;;;3.21;58.66;94187.38;5022549;28;20040;-78
2022/01/15 03:33:54;;;;;;;7.75;3.80;;;;;;;3.18;58.88;94185.28;5022546;28;20026;-77
2022/01/15 03:36:19;;;;;;;10.13;4.35;;;;;;;3.16;59.03;94182.13;5022554;28;20092;-77
2022/01/15 03:38:45;;;;;;;8.88;4.68;;;;;;;3.11;59.54;94179.44;5022550;28;20072;-76
2022/01/15 03:41:10;;;;;;;6.55;3.25;;;;;;;3.09;59.85;94186.81;5037713;28;20316;-78
2022/01/15 03:43:36;;;;;;;8.52;3.85;;;;;;;3.11;59.95;94196.03;5022513;28;20228;-79
2022/01/15 03:46:01;;;;;;;8.27;3.92;;;;;;;3.15;60.34;94207.63;5022679;28;20089;-78
2022/01/15 03:48:27;;;;;;;6.03;3.28;;;;;;;3.14;60.62;94216.59;5022609;28;20378;-79
2022/01/15 03:50:53;;;;;;;9.18;4.20;;;;;;;3.20;60.63;94220.06;5022482;28;20025;-77
2022/01/15 03:53:21;;;;;;;8.70;4.22;;;;;;;3.22;60.86;94191.63;5022310;28;20049;-78
2022/01/15 03:55:47;;;;;;;11.77;3.50;;;;;;;3.34;61.02;94215.88;5021154;28;20076;-78
2022/01/15 03:58:12;;;;;;;8.18;3.33;;;;;;;3.34;60.89;94210.63;5022613;28;20029;-78
2022/01/15 04:00:38;;;;;;;9.82;4.35;;;;;;;3.33;61.00;94219.56;5022460;28;20188;-77
2022/01/15 04:03:04;;;;;;;8.45;3.72;;;;;;;3.30;60.71;94203.50;5022418;28;20025;-78
2022/01/15 04:05:31;;;;;;;8.02;4.07;;;;;;;3.21;60.90;94238.22;5037775;28;20317;-78
2022/01/15 04:07:56;;;;;;;8.05;3.85;;;;;;;3.22;61.34;94225.84;5022242;28;20037;-78
2022/01/15 04:10:22;;;;;;;9.60;4.60;;;;;;;3.16;61.30;94229.53;5022333;28;20022;-77
2022/01/15 04:12:47;;;;;;;11.73;5.55;;;;;;;3.06;61.26;94266.34;5022214;28;20174;-77
2022/01/15 04:15:15;;;;;;;10.38;4.57;;;;;;;3.00;61.61;94231.28;5022536;28;20030;-78
2022/01/15 04:17:42;;;;;;;9.80;4.30;;;;;;;2.95;61.46;94253.13;5022275;28;20048;-78
2022/01/15 04:20:08;;;;;;;8.68;4.28;;;;;;;2.83;61.72;94242.00;5022120;28;20026;-78
2022/01/15 04:22:34;;;;;;;10.60;5.00;;;;;;;2.80;61.67;94253.03;5020826;28;20069;-78
2022/01/15 04:24:59;;;;;;;18.15;5.80;;;;;;;2.80;61.81;94239.88;5037405;28;20200;-79
2022/01/15 04:27:27;;;;;;;14.48;5.75;;;;;;;2.76;61.63;94246.69;5022222;28;20343;-79
2022/01/15 04:29:55;;;;;;;10.95;5.55;;;;;;;2.72;62.12;94261.41;5023398;28;20076;-79
2022/01/15 04:32:21;;;;;;;10.73;5.35;;;;;;;2.66;62.21;94251.88;5025641;28;20067;-80
2022/01/15 04:34:47;;;;;;;11.65;4.88;;;;;;;2.58;62.38;94238.16;5025640;28;20029;-79
2022/01/15 04:37:20;;;;;;;14.02;5.50;;;;;;;2.57;62.76;94249.72;5025644;28;20354;-79
2022/01/15 04:39:46;;;;;;;10.70;4.90;;;;;;;2.51;62.77;94245.47;5025732;28;20026;-81
2022/01/15 04:42:12;;;;;;;13.20;5.13;;;;;;;2.54;63.01;94254.69;5025628;28;20026;-80
2022/01/15 04:44:38;;;;;;;13.43;5.65;;;;;;;2.48;63.22;94267.03;5024513;28;20109;-80
2022/01/15 04:47:03;;;;;;;13.02;5.15;;;;;;;2.46;63.20;94268.31;5040696;28;20033;-79
2022/01/15 04:49:32;;;;;;;10.18;5.18;;;;;;;2.47;63.50;94262.03;5025539;28;20025;-78
2022/01/15 04:51:58;;;;;;;10.90;4.90;;;;;;;2.46;63.63;94265.69;5025430;28;20041;-76
2022/01/15 04:54:24;;;;;;;12.40;5.55;;;;;;;2.46;63.81;94268.31;5040559;28;20042;-77
2022/01/15 04:56:49;;;;;;;15.13;5.47;;;;;;;2.44;64.03;94270.41;5025235;28;20354;-78
2022/01/15 04:59:15;;;;;;;12.80;5.57;;;;;;;2.48;63.83;94267.03;5025362;28;20037;-78
2022/01/15 05:01:40;;;;;;;8.50;4.60;;;;;;;2.42;64.18;94268.03;5025307;28;20025;-78
2022/01/15 05:04:06;;;;;;;11.70;6.00;;;;;;;2.39;64.37;94260.66;5025355;28;20097;-79
2022/01/15 05:06:32;;;;;;;12.77;4.97;;;;;;;2.38;64.46;94243.25;5024930;28;20026;-79
2022/01/15 05:09:05;;;;;;;10.07;5.00;;;;;;;2.41;64.46;94266.47;5025091;28;20018;-77
2022/01/15 05:11:43;;;;;;;11.30;5.07;;;;;;;2.42;64.63;94278.56;5025079;28;20025;-79
2022/01/15 05:14:10;;;;;;;11.77;5.25;;;;;;;2.35;64.88;94291.13;5025067;28;20084;-79
2022/01/15 05:16:36;;;;;;;14.70;6.05;;;;;;;2.35;64.75;94280.63;5024664;28;20018;-79
2022/01/15 05:19:01;;;;;;;11.57;5.15;;;;;;;2.36;64.65;94297.97;5024590;28;20029;-77
2022/01/15 05:21:27;;;;;;;12.35;6.07;;;;;;;2.33;64.43;94285.34;5024778;28;20022;-78
2022/01/15 05:23:52;;;;;;;15.35;5.90;;;;;;;2.36;64.39;94292.72;5024835;28;20352;-78
2022/01/15 05:26:18;;;;;;;11.52;5.20;;;;;;;2.34;64.28;94286.91;5040216;28;20021;-78
2022/01/15 05:28:43;;;;;;;10.82;5.25;;;;;;;2.42;64.37;94299.59;5024336;28;20112;-79
2022/01/15 05:31:09;;;;;;;18.38;5.40;;;;;;;2.41;64.30;94311.19;5024706;28;20308;-79
2022/01/15 05:33:34;;;;;;;12.20;5.57;;;;;;;2.35;64.32;94317.44;5024650;28;20041;-78
2022/01/15 05:36:00;;;;;;;12.15;5.20;;;;;;;2.38;64.26;94319.56;5040024;28;20021;-79
2022/01/15 05:38:26;;;;;;;12.93;5.07;;;;;;;2.40;64.17;94306.94;5023519;28;20033;-78
2022/01/15 05:40:51;;;;;;;14.98;6.30;;;;;;;2.41;64.34;94325.13;5038936;28;20029;-78
2022/01/15 05:43:17;;;;;;;13.23;6.45;;;;;;;2.36;64.45;94321.66;5039849;28;20098;-79
2022/01/15 05:45:42;;;;;;;11.00;5.22;;;;;;;2.35;65.16;94315.59;5024383;28;20060;-79
2022/01/15 05:48:08;;;;;;;10.93;6.35;;;;;;;2.32;64.75;94320.56;5024651;28;20025;-79
2022/01/15 05:50:33;;;;;;;11.32;5.35;;;;;;;2.27;64.92;94312.63;5024269;28;20026;-79
2022/01/15 05:52:59;;;;;;;12.93;6.00;;;;;;;2.20;65.03;94339.16;5024334;28;20029;-79
2022/01/15 05:55:24;;;;;;;15.85;8.63;;;;;;;2.30;65.00;94330.53;5024285;28;20313;-80
2022/01/15 05:57:50;;;;;;;15.48;6.18;;;;;;;2.30;65.29;94338.44;5024309;28;20022;-79
2022/01/15 06:00:16;;;;;;;15.10;5.78;;;;;;;2.28;65.28;94317.66;5023884;28;20030;-79
2022/01/15 06:02:41;;;;;;;9.85;5.22;;;;;;;2.24;65.21;94334.97;5024217;28;20097;-80
2022/01/15 06:05:07;;;;;;;14.82;5.88;;;;;;;2.28;65.33;94338.69;5039399;28;20029;-80
2022/01/15 06:07:33;;;;;;;13.00;6.43;;;;;;;2.23;65.45;94345.75;5022849;28;20076;-80
2022/01/15 06:09:58;;;;;;;12.93;6.43;;;;;;;2.29;65.53;94357.91;5023512;28;20316;-80
2022/01/15 06:12:30;;;;;;;11.23;5.53;;;;;;;2.29;65.76;94358.69;5023918;28;20045;-79
2022/01/15 06:14:55;;;;;;;14.03;7.10;;;;;;;2.30;65.83;94360.28;5023915;28;20037;-79
2022/01/15 06:17:21;;;;;;;15.18;6.57;;;;;;;2.23;65.79;94358.88;5023828;28;20014;-79
2022/01/15 06:19:46;;;;;;;16.00;6.75;;;;;;;2.27;65.29;94360.78;5023670;28;20053;-80
2022/01/15 06:22:11;;;;;;;14.55;6.28;;;;;;;2.20;65.66;94370.72;5023837;28;20017;-80
2022/01/15 06:24:39;;;;;;;14.32;6.20;;;;;;;2.21;65.74;94362.56;5023749;28;20311;-80
2022/01/15 06:27:05;;;;;;;13.48;6.38;;;;;;;2.16;65.94;94370.41;5023735;28;20041;-80
2022/01/15 06:29:31;;;;;;;14.52;5.68;;;;;;;2.15;66.08;94365.38;5023393;28;20013;-80
2022/01/15 06:31:56;;;;;;;12.32;6.38;;;;;;;2.17;66.02;94361.47;5023647;28;20037;-78
2022/01/15 06:34:21;;;;;;;16.08;6.40;;;;;;;2.18;66.00;94362.28;5023571;28;20093;-78
2022/01/15 06:36:47;;;;;;;13.63;5.85;;;;;;;2.19;66.06;94383.03;5023358;28;20332;-78
2022/01/15 06:39:13;;;;;;;15.90;6.32;;;;;;;2.02;66.38;94374.47;5023419;28;20021;-78
2022/01/15 06:41:38;;;;;;;11.30;6.22;;;;;;;2.03;66.54;94375.25;5023419;28;20284;-78
2022/01/15 06:44:04;;;;;;;14.43;7.00;;;;;;;2.00;66.62;94377.34;5023219;28;20129;-78
2022/01/15 06:46:29;;;;;;;11.77;5.72;;;;;;;1.94;66.80;94374.91;5023236;28;20033;-77
2022/01/15 06:48:54;;;;;;;12.25;6.45;;;;;;;1.91;67.01;94378.00;5038676;28;20053;-77
2022/01/15 06:51:20;;;;;;;19.13;6.80;;;;;;;1.92;66.95;94393.53;5023533;28;20025;-77
2022/01/15 06:53:45;;;;;;;13.95;7.07;;;;;;;1.96;66.83;94388.59;5022357;28;20255;-77
2022/01/15 06:56:11;;;;;;;19.30;7.50;;;;;;;1.96;66.74;94383.34;5022038;28;20092;-78
2022/01/15 06:58:36;;;;;;;12.13;5.45;;;;;;;1.91;66.97;94384.06;5023033;28;20018;-78
2022/01/15 07:01:02;;;;;;;14.07;6.68;;;;;;;1.89;67.00;94396.66;5023163;28;20072;-78
2022/01/15 07:03:28;;;;;;;16.77;6.63;;;;;;;1.92;67.33;94382.25;5023074;28;20022;-80
2022/01/15 07:05:53;;;;;;;18.90;7.28;;;;;;;2.00;66.96;94387.06;5022935;28;20017;-80
2022/01/15 07:08:19;;;;;;;13.43;6.60;;;;;;;1.96;66.88;94383.34;5023165;28;20029;-79
2022/01/15 07:10:45;;;;;;;12.02;6.40;;;;;;;2.00;66.75;94397.59;5038295;28;20028;-77
2022/01/15 07:13:10;;;;;;;14.13;6.57;;;;;;;2.00;66.73;94419.41;5022924;28;20100;-77
2022/01/15 07:15:36;;;;;;;13.30;6.72;;;;;;;2.07;66.26;94421.84;5022792;28;20328;-77
2022/01/15 07:18:02;;;;;;;13.43;6.05;;;;;;;2.09;65.84;94417.13;5022707;28;20320;-79
2022/01/15 07:20:29;;;;;;;13.73;6.88;;;;;;;2.14;65.89;94419.03;5022757;28;20060;-78
2022/01/15 07:22:55;;;;;;;15.20;6.95;;;;;;;2.21;65.59;94423.03;5022677;28;20097;-78
2022/01/15 07:25:21;;;;;;;14.05;5.55;;;;;;;2.20;65.31;94407.53;5037746;28;20018;-77
2022/01/15 07:27:47;;;;;;;13.55;6.35;;;;;;;2.17;65.26;94435.09;5022580;28;20056;-77
2022/01/15 07:30:13;;;;;;;11.55;6.35;;;;;;;2.23;65.53;94435.16;5021642;28;20057;-79
2022/01/15 07:32:42;;;;;;;14.98;7.35;;;;;;;2.23;65.39;94438.59;5022859;28;20262;-78
2022/01/15 07:35:09;;;;;;;15.32;6.10;;;;;;;2.21;65.30;94438.03;5022583;28;20022;-79
2022/01/15 07:37:36;;;;;;;13.68;6.85;;;;;;;2.21;65.25;94457.25;5022272;28;20049;-79
2022/01/15 07:40:03;;;;;;;15.32;7.72;;;;;;;2.16;65.72;94457.19;5022637;28;20143;-78
2022/01/15 07:42:34;;;;;;;15.73;7.72;;;;;;;2.17;65.41;94453.50;5022417;28;20017;-79
2022/01/15 07:45:00;;;;;;;17.17;7.95;;;;;;;2.15;65.62;94452.16;5037800;28;20030;-77
2022/01/15 07:47:25;;;;;;;15.00;7.93;;;;;;;2.24;65.86;94449.91;5022581;28;20250;-78
2022/01/15 07:49:51;;;;;;;17.40;7.78;;;;;;;2.33;65.10;94461.59;5022215;28;20018;-78
2022/01/15 07:52:19;;;;;;;15.65;7.38;;;;;;;2.32;65.15;94473.13;5022175;28;20029;-78
2022/01/15 07:54:44;;;;;;;19.27;8.30;;;;;;;2.12;65.15;94471.88;5022738;28;20028;-78
2022/01/15 07:57:10;;;;;;;18.85;7.78;;;;;;;2.07;65.33;94477.06;5022309;28;20022;-77
2022/01/15 07:59:35;;;;;;;18.67;8.02;;;;;;;2.02;65.80;94478.84;5021036;28;20030;-79
2022/01/15 08:02:00;;;;;;;22.27;8.98;;;;;;;2.09;65.43;94485.50;5022223;28;20018;-79
2022/01/15 08:04:26;;;;;;;19.27;8.65;;;;;;;2.06;65.73;94480.75;5024022;28;20108;-76
2022/01/15 08:06:51;;;;;;;19.58;8.23;;;;;;;2.15;64.90;94489.78;5025980;28;20117;-76
2022/01/15 08:09:17;;;;;;;16.42;8.15;;;;;;;2.11;64.90;94477.38;5025942;28;20041;-76
2022/01/15 08:11:42;;;;;;;17.88;9.02;;;;;;;2.07;65.71;94486.78;5025809;28;20022;-77
2022/01/15 08:14:07;;;;;;;19.00;7.82;;;;;;;2.10;65.34;94502.09;5041006;28;20038;-77
2022/01/15 08:16:33;;;;;;;20.42;8.40;;;;;;;2.20;64.97;94518.78;5025627;28;20104;-77
2022/01/15 08:18:58;;;;;;;16.80;8.32;;;;;;;2.11;65.04;94514.19;5025593;28;20203;-79
2022/01/15 08:21:24;;;;;;;19.13;8.52;;;;;;;2.10;65.52;94529.19;5025381;28;20034;-82
2022/01/15 08:23:50;;;;;;;17.67;8.32;;;;;;;2.03;65.08;94527.75;5025640;28;20091;-78
2022/01/15 08:26:15;;;;;;;19.77;9.00;;;;;;;1.88;65.45;94523.09;5025634;28;20068;-78
2022/01/15 08:28:41;;;;;;;19.92;9.27;;;;;;;1.92;65.45;94519.72;5026032;28;20089;-79
2022/01/15 08:31:07;;;;;;;18.33;9.73;;;;;;;2.00;65.36;94523.78;5025568;28;20022;-78
2022/01/15 08:33:33;;;;;;;19.38;9.70;;;;;;;2.01;65.20;94528.00;5024529;28;20026;-77
2022/01/15 08:35:58;;;;;;;19.65;8.85;;;;;;;1.94;64.47;94508.97;5026079;28;20328;-76
2022/01/15 08:38:24;;;;;;;15.10;7.15;;;;;;;1.93;64.47;94544.97;5025955;28;20026;-76
2022/01/15 08:40:50;;;;;;;19.13;8.93;;;;;;;1.97;64.64;94534.78;5025450;28;20026;-78
2022/01/15 08:43:16;;;;;;;18.90;8.63;;;;;;;2.01;64.64;94512.22;5025696;28;20255;-79
2022/01/15 08:45:43;;;;;;;18.92;9.45;;;;;;;2.21;64.10;94532.72;5025567;28;20040;-77
2022/01/15 08:48:11;;;;;;;28.70;12.40;;;;;;;2.36;64.24;94537.38;5025221;28;20097;-77
2022/01/15 08:50:36;;;;;;;17.80;8.15;;;;;;;2.40;63.49;94539.28;5025266;28;20225;-76
2022/01/15 08:53:06;;;;;;;28.30;12.07;;;;;;;2.44;63.52;94550.09;5025222;28;20060;-76
2022/01/15 08:55:33;;;;;;;30.25;12.15;;;;;;;2.53;63.30;94543.38;5025118;28;20213;-77
2022/01/15 08:57:59;;;;;;;22.00;9.77;;;;;;;2.55;63.03;94546.56;5025077;28;20053;-77
2022/01/15 09:00:27;;;;;;;19.17;10.10;;;;;;;2.52;62.40;94541.78;5040272;28;20050;-76
2022/01/15 09:02:54;;;;;;;20.95;10.50;;;;;;;2.54;63.05;94539.69;5024992;28;20063;-76
2022/01/15 09:05:20;;;;;;;25.73;11.20;;;;;;;2.54;62.55;94549.44;5040243;28;20057;-76
2022/01/15 09:07:46;;;;;;;37.47;10.07;;;;;;;2.54;62.35;94558.13;5025074;28;20089;-77
2022/01/15 09:10:11;;;;;;;24.92;10.60;;;;;;;2.47;62.00;94557.53;5024689;28;20016;-77
2022/01/15 09:12:36;;;;;;;21.23;9.77;;;;;;;2.43;62.02;94579.31;5023463;28;20046;-75
2022/01/15 09:15:02;;;;;;;22.17;9.10;;;;;;;2.34;62.37;94563.13;5024045;28;20072;-74
2022/01/15 09:17:28;;;;;;;16.40;8.43;;;;;;;2.28;61.95;94566.72;5039481;28;20025;-74
2022/01/15 09:19:54;;;;;;;17.60;8.43;;;;;;;2.31;62.11;94571.53;5023274;28;20048;-75
2022/01/15 09:22:21;;;;;;;17.52;8.98;;;;;;;2.27;62.59;94560.69;5022442;28;20033;-76
2022/01/15 09:24:46;;;;;;;20.52;8.35;;;;;;;2.19;62.32;94569.00;5022769;28;20140;-76
2022/01/15 09:30:15;;;;;;;13.82;7.07;;;;;;;2.24;62.51;94565.63;5024390;28;20032;-74
2022/01/15 09:32:42;;;;;;;;;;;;;;;2.30;62.07;94557.59;5024829;28;20339;-74
2022/01/15 09:35:08;;;;;;;18.65;8.20;;;;;;;2.30;62.08;94548.88;5023757;28;20123;-74
2022/01/15 09:37:34;;;;;;;14.82;7.15;;;;;;;2.40;62.03;94541.91;5023097;28;20032;-74
2022/01/15 09:39:59;;;;;;;18.40;8.00;;;;;;;2.47;62.08;94538.31;5023484;28;20025;-74
2022/01/15 09:42:25;;;;;;;28.95;7.75;;;;;;;2.53;61.43;94526.81;5023703;28;20049;-74
2022/01/15 09:44:54;;;;;;;12.65;6.85;;;;;;;2.46;61.32;94537.50;5023705;28;20372;-74
2022/01/15 09:47:22;;;;;;;13.18;6.82;;;;;;;2.54;61.38;94550.22;5024082;28;20095;-74
2022/01/15 09:49:50;;;;;;;19.98;8.75;;;;;;;2.70;61.22;94524.09;5024303;28;20097;-74
2022/01/15 09:52:16;;;;;;;17.55;8.02;;;;;;;2.87;60.12;94524.81;5024529;28;20029;-75
2022/01/15 09:54:42;;;;;;;16.02;6.72;;;;;;;2.90;59.54;94518.25;5024014;28;20378;-73
2022/01/15 09:57:08;;;;;;;17.23;8.07;;;;;;;3.01;59.97;94518.09;5024099;28;20292;-73
2022/01/15 09:59:33;;;;;;;16.08;7.45;;;;;;;2.98;59.58;94523.06;5023775;28;20076;-75
2022/01/15 10:02:02;;;;;;;14.88;6.90;;;;;;;3.02;58.93;94537.31;5024041;28;20259;-74
2022/01/15 10:04:32;;;;;;;13.57;6.70;;;;;;;3.13;58.15;94527.66;5024209;28;20216;-74
2022/01/15 10:07:14;;;;;;;14.70;7.00;;;;;;;3.13;58.05;94535.56;5023809;28;20037;-73
2022/01/15 10:09:41;;;;;;;15.20;6.47;;;;;;;3.09;58.18;94535.25;5023742;28;20018;-73
2022/01/15 10:12:08;;;;;;;12.02;6.68;;;;;;;3.01;58.46;94538.34;5023793;28;20017;-74
2022/01/15 10:14:39;;;;;;;15.18;6.93;;;;;;;3.06;58.64;94550.78;5023669;28;20045;-73
2022/01/15 10:17:26;;;;;;;16.10;7.03;;;;;;;3.12;58.49;94570.88;5023744;28;20041;-75
2022/01/15 10:19:52;;;;;;;19.05;8.30;;;;;;;3.09;58.91;94547.66;5023251;28;20038;-74
2022/01/15 10:22:23;;;;;;;13.90;6.38;;;;;;;3.05;58.53;94541.28;5023951;28;20029;-73
2022/01/15 10:24:58;;;;;;;14.27;6.70;;;;;;;3.04;58.68;94550.25;5023833;28;20037;-74
2022/01/15 10:27:24;;;;;;;17.60;7.88;;;;;;;3.09;58.85;94540.53;5023278;28;20129;-74
2022/01/15 10:30:00;;;;;;;15.75;6.40;;;;;;;3.11;58.33;94545.56;5023714;28;20021;-73
2022/01/15 10:32:28;;;;;;;14.60;6.22;;;;;;;3.16;58.17;94525.34;5023311;28;20068;-74
2022/01/15 10:34:54;;;;;;;13.32;6.30;;;;;;;3.11;57.96;94533.19;5023389;28;20025;-74
2022/01/15 10:37:24;;;;;;;12.52;6.18;;;;;;;2.95;58.46;94527.00;5023336;28;20080;-74
2022/01/15 10:39:58;;;;;;;12.32;6.80;;;;;;;3.03;58.26;94517.81;5023148;28;20391;-73
2022/01/15 10:42:24;;;;;;;14.68;7.55;;;;;;;3.10;58.46;94515.78;5022726;28;20022;-74
2022/01/15 10:44:54;;;;;;;16.10;6.97;;;;;;;3.18;58.14;94511.91;5022954;28;20022;-73
2022/01/15 10:47:23;;;;;;;15.20;7.40;;;;;;;3.14;57.79;94511.63;5022855;28;20030;-74
2022/01/15 10:49:50;;;;;;;15.85;7.25;;;;;;;3.10;58.09;94515.00;5022976;28;20283;-73
2022/01/15 10:52:19;;;;;;;13.20;6.90;;;;;;;3.08;58.53;94502.09;5037876;28;20109;-74
2022/01/15 10:55:06;;;;;;;13.70;5.70;;;;;;;2.99;58.07;94507.00;5023245;28;20030;-73
2022/01/15 10:57:39;;;;;;;18.08;8.57;;;;;;;3.11;58.36;94506.03;5022598;28;20022;-74
2022/01/15 11:00:15;;;;;;;15.75;6.97;;;;;;;3.11;57.84;94517.38;5021313;28;20403;-74
2022/01/15 11:02:43;;;;;;;14.38;6.65;;;;;;;3.06;57.99;94506.03;5022503;28;20033;-73
2022/01/15 11:05:24;;;;;;;21.10;8.30;;;;;;;3.12;58.73;94510.28;5022670;28;20033;-74
2022/01/15 11:07:50;;;;;;;16.42;7.15;;;;;;;3.13;57.40;94517.13;5022837;28;20021;-74
2022/01/15 11:10:15;;;;;;;15.23;7.75;;;;;;;3.39;58.38;94518.94;5023090;28;20017;-74
2022/01/15 11:12:41;;;;;;;16.77;7.10;;;;;;;3.56;57.26;94524.09;5022538;28;20060;-74
2022/01/15 11:15:08;;;;;;;14.23;6.97;;;;;;;3.67;55.99;94519.69;5022760;28;20021;-74
2022/01/15 11:17:34;;;;;;;15.27;7.47;;;;;;;3.81;56.47;94512.91;5023063;28;20037;-74
2022/01/15 11:20:02;;;;;;;12.98;6.57;;;;;;;3.86;55.49;94514.78;5022695;28;20033;-74
2022/01/15 11:22:28;;;;;;;13.50;6.95;;;;;;;4.01;55.31;94501.69;5022668;28;20024;-74
2022/01/15 11:24:54;;;;;;;16.20;7.90;;;;;;;4.04;55.19;94502.22;5022619;28;20093;-74
2022/01/15 11:27:20;;;;;;;17.20;6.65;;;;;;;3.83;54.98;94494.22;5022564;28;20025;-74
2022/01/15 11:29:46;;;;;;;13.82;6.97;;;;;;;3.81;55.71;94493.66;5037838;28;20220;-73
2022/01/15 11:32:13;;;;;;;12.38;6.30;;;;;;;3.92;55.44;94490.03;5022547;28;20026;-73
2022/01/15 11:34:41;;;;;;;15.40;6.00;;;;;;;3.86;55.38;94495.53;5022397;28;20065;-74
2022/01/15 11:37:19;;;;;;;12.98;6.63;;;;;;;3.96;55.86;94496.38;5022466;28;20029;-73
2022/01/15 11:39:46;;;;;;;16.35;7.18;;;;;;;3.97;55.01;94487.44;5021708;28;20022;-73
2022/01/15 11:42:35;;;;;;;15.20;7.43;;;;;;;4.01;55.53;94485.09;5022078;28;20273;-73
2022/01/15 11:45:01;;;;;;;15.40;6.80;;;;;;;4.13;55.04;94488.31;5022271;28;20201;-72
2022/01/15 11:47:27;;;;;;;15.73;7.05;;;;;;;4.24;54.03;94488.34;5037515;28;20105;-73
2022/01/15 11:49:57;;;;;;;15.15;6.82;;;;;;;4.41;54.58;94479.16;5022284;28;20014;-73
2022/01/15 11:52:23;;;;;;;12.35;6.30;;;;;;;4.41;54.14;94494.22;5021287;28;20022;-74
2022/01/15 11:54:48;;;;;;;16.88;7.90;;;;;;;4.38;54.71;94492.88;5022260;28;20026;-74
2022/01/15 11:57:24;;;;;;;12.25;6.13;;;;;;;4.20;54.51;94490.69;5022433;28;20025;-74
2022/01/15 11:59:55;;;;;;;16.40;7.18;;;;;;;4.17;54.83;94501.75;5037509;28;20038;-74